createdAt,value
2022-11-13T00:02:27.320Z,15.50
2022-11-13T00:05:13.645Z,14.77
2022-11-13T00:07:59.879Z,15.80
2022-11-13T00:10:45.789Z,15.40
2022-11-13T00:13:33.283Z,15.43
2022-11-13T00:16:22.250Z,15.23
2022-11-13T00:19:08.786Z,14.70
2022-11-13T00:21:56.879Z,13.70
2022-11-13T00:24:43.421Z,13.60
2022-11-13T00:27:32.220Z,14.17
2022-11-13T00:30:19.688Z,13.90
2022-11-13T00:33:06.770Z,13.37
2022-11-13T00:35:52.963Z,15.83
2022-11-13T00:38:39.622Z,13.13
2022-11-13T00:41:26.080Z,13.37
2022-11-13T00:44:12.411Z,13.80
2022-11-13T00:46:58.691Z,14.20
2022-11-13T00:49:44.648Z,13.30
2022-11-13T00:52:31.001Z,12.63
2022-11-13T00:55:17.872Z,12.57
2022-11-13T00:58:07.781Z,13.73
2022-11-13T01:00:54.225Z,14.40
2022-11-13T01:03:41.694Z,16.70
2022-11-13T01:06:30.090Z,13.27
2022-11-13T01:09:16.340Z,13.27
2022-11-13T01:12:02.565Z,13.73
2022-11-13T01:14:48.942Z,14.70
2022-11-13T01:17:35.774Z,13.80
2022-11-13T01:20:25.775Z,11.67
2022-11-13T01:23:12.440Z,12.90
2022-11-13T01:26:27.952Z,11.87
2022-11-13T01:29:13.886Z,13.03
2022-11-13T01:32:00.492Z,12.10
2022-11-13T01:34:46.833Z,15.07
2022-11-13T01:37:33.068Z,13.13
2022-11-13T01:40:19.709Z,13.50
2022-11-13T01:43:39.593Z,14.30
2022-11-13T01:46:34.666Z,11.97
2022-11-13T01:49:34.789Z,14.50
2022-11-13T01:52:36.805Z,14.07
2022-11-13T01:55:23.084Z,13.33
2022-11-13T01:58:12.993Z,14.00
2022-11-13T02:00:59.285Z,12.23
2022-11-13T02:03:45.533Z,12.60
2022-11-13T02:06:51.068Z,14.80
2022-11-13T02:09:57.459Z,12.10
2022-11-13T02:12:52.148Z,13.43
2022-11-13T02:15:41.654Z,13.33
2022-11-13T02:18:31.204Z,12.83
2022-11-13T02:22:07.843Z,12.70
2022-11-13T02:24:58.729Z,12.03
2022-11-13T02:27:51.214Z,11.70
2022-11-13T02:30:38.011Z,13.07
2022-11-13T02:33:33.828Z,12.13
2022-11-13T02:36:25.526Z,12.57
2022-11-13T02:39:14.584Z,11.97
2022-11-13T02:42:00.957Z,10.83
2022-11-13T02:44:47.259Z,12.03
2022-11-13T02:47:34.576Z,12.30
2022-11-13T02:50:21.060Z,11.47
2022-11-13T02:53:07.703Z,11.77
2022-11-13T02:55:54.084Z,9.83
2022-11-13T02:58:40.552Z,9.70
2022-11-13T03:01:27.036Z,10.20
2022-11-13T03:04:13.599Z,13.03
2022-11-13T03:07:00.253Z,10.03
2022-11-13T03:09:47.021Z,10.87
2022-11-13T03:12:34.413Z,9.60
2022-11-13T03:15:20.870Z,10.73
2022-11-13T03:18:09.184Z,10.70
2022-11-13T03:20:55.303Z,9.90
2022-11-13T03:23:45.414Z,9.20
2022-11-13T03:26:32.488Z,11.07
2022-11-13T03:29:18.676Z,9.60
2022-11-13T03:32:05.672Z,11.20
2022-11-13T03:34:52.191Z,10.10
2022-11-13T03:37:38.590Z,10.27
2022-11-13T03:40:25.007Z,9.67
2022-11-13T03:43:11.394Z,9.50
2022-11-13T03:45:57.796Z,10.40
2022-11-13T03:48:44.289Z,10.13
2022-11-13T03:51:30.395Z,11.20
2022-11-13T03:54:16.862Z,11.23
2022-11-13T03:57:03.513Z,10.73
2022-11-13T03:59:49.517Z,11.23
2022-11-13T04:02:35.898Z,10.37
2022-11-13T04:05:23.036Z,11.10
2022-11-13T04:08:10.506Z,10.07
2022-11-13T04:11:13.634Z,10.90
2022-11-13T04:13:59.629Z,10.73
2022-11-13T04:16:45.724Z,9.97
2022-11-13T04:19:31.685Z,11.50
2022-11-13T04:22:17.397Z,11.60
2022-11-13T04:25:05.259Z,11.00
2022-11-13T04:27:53.695Z,11.43
2022-11-13T04:30:40.209Z,10.73
2022-11-13T04:33:26.223Z,11.30
2022-11-13T04:36:12.288Z,11.27
2022-11-13T04:38:58.062Z,11.13
2022-11-13T04:42:02.872Z,11.60
2022-11-13T04:44:50.870Z,11.30
2022-11-13T04:47:38.312Z,11.50
2022-11-13T04:50:26.624Z,11.53
2022-11-13T04:53:14.318Z,12.00
2022-11-13T04:56:02.076Z,11.67
2022-11-13T04:58:49.608Z,11.60
2022-11-13T05:01:37.589Z,13.40
2022-11-13T05:04:26.704Z,14.60
2022-11-13T05:07:14.011Z,11.77
2022-11-13T05:10:01.835Z,13.10
2022-11-13T05:12:48.395Z,13.00
2022-11-13T05:15:34.706Z,13.87
2022-11-13T05:18:25.482Z,13.57
2022-11-13T05:21:13.323Z,11.97
2022-11-13T05:23:59.699Z,11.20
2022-11-13T05:26:45.984Z,12.37
2022-11-13T05:29:32.337Z,13.30
2022-11-13T05:32:18.429Z,14.03
2022-11-13T05:35:05.753Z,13.70
2022-11-13T05:37:52.114Z,16.10
2022-11-13T05:40:38.369Z,19.43
2022-11-13T05:43:24.457Z,19.47
2022-11-13T05:46:28.746Z,48.67
2022-11-13T05:49:14.936Z,36.90
2022-11-13T05:52:00.940Z,28.77
2022-11-13T05:54:47.069Z,26.20
2022-11-13T05:57:33.392Z,27.17
2022-11-13T06:00:20.464Z,22.80
2022-11-13T06:03:06.720Z,23.80
2022-11-13T06:05:53.072Z,28.00
2022-11-13T06:08:39.949Z,25.47
2022-11-13T06:11:30.526Z,24.63
2022-11-13T06:14:17.125Z,23.60
2022-11-13T06:17:03.228Z,22.33
2022-11-13T06:19:52.089Z,24.50
2022-11-13T06:22:38.548Z,27.70
2022-11-13T06:25:25.007Z,25.17
2022-11-13T06:28:11.342Z,23.90
2022-11-13T06:31:09.269Z,24.20
2022-11-13T06:33:57.289Z,24.47
2022-11-13T06:36:43.648Z,25.30
2022-11-13T06:39:29.830Z,21.00
2022-11-13T06:42:15.689Z,19.20
2022-11-13T06:45:02.591Z,17.60
2022-11-13T06:47:48.471Z,18.37
2022-11-13T06:50:34.949Z,18.03
2022-11-13T06:53:20.899Z,18.10
2022-11-13T06:56:08.712Z,22.80
2022-11-13T06:58:56.598Z,18.83
2022-11-13T07:01:42.609Z,18.37
2022-11-13T07:04:28.461Z,18.23
2022-11-13T07:07:14.328Z,16.93
2022-11-13T07:10:00.466Z,18.70
2022-11-13T07:12:50.659Z,16.40
2022-11-13T07:15:40.866Z,17.27
2022-11-13T07:18:27.346Z,16.73
2022-11-13T07:21:14.415Z,16.30
2022-11-13T07:24:00.878Z,15.70
2022-11-13T07:26:46.974Z,15.27
2022-11-13T07:29:33.080Z,14.63
2022-11-13T07:32:19.470Z,15.70
2022-11-13T07:35:07.006Z,16.67
2022-11-13T07:37:58.036Z,15.77
2022-11-13T07:40:44.666Z,15.10
2022-11-13T07:43:31.222Z,16.00
2022-11-13T07:46:17.419Z,15.00
2022-11-13T07:49:03.651Z,14.03
2022-11-13T07:51:49.468Z,15.90
2022-11-13T07:54:36.279Z,15.10
2022-11-13T07:57:23.111Z,14.97
2022-11-13T08:00:10.569Z,15.07
2022-11-13T08:02:57.244Z,16.10
2022-11-13T08:05:44.401Z,16.20
2022-11-13T08:08:31.869Z,15.80
2022-11-13T08:11:18.138Z,15.20
2022-11-13T08:14:04.223Z,15.57
2022-11-13T08:16:50.533Z,18.13
2022-11-13T08:19:36.488Z,16.30
2022-11-13T08:22:22.419Z,16.40
2022-11-13T08:25:08.813Z,15.07
2022-11-13T08:27:55.434Z,15.70
2022-11-13T08:30:46.556Z,19.27
2022-11-13T08:33:32.448Z,16.50
2022-11-13T08:36:18.417Z,16.97
2022-11-13T08:39:04.447Z,17.87
2022-11-13T08:41:50.463Z,16.43
2022-11-13T08:44:36.622Z,14.90
2022-11-13T08:47:28.293Z,14.80
2022-11-13T08:50:15.901Z,13.83
2022-11-13T08:53:02.622Z,11.43
2022-11-13T08:55:49.107Z,12.50
2022-11-13T08:58:35.140Z,11.43
2022-11-13T09:01:23.498Z,11.23
2022-11-13T09:04:09.677Z,9.47
2022-11-13T09:06:56.657Z,8.40
2022-11-13T09:09:43.013Z,9.50
2022-11-13T09:12:29.715Z,9.50
2022-11-13T09:15:19.155Z,9.23
2022-11-13T09:18:10.979Z,9.40
2022-11-13T09:21:03.004Z,10.90
2022-11-13T09:23:49.289Z,8.57
2022-11-13T09:26:37.718Z,8.93
2022-11-13T09:29:26.174Z,8.53
2022-11-13T09:32:12.354Z,8.63
2022-11-13T09:34:58.822Z,7.33
2022-11-13T09:37:44.841Z,7.67
2022-11-13T09:41:18.206Z,8.70
2022-11-13T09:44:21.398Z,8.87
2022-11-13T09:47:24.327Z,8.80
2022-11-13T09:50:31.793Z,9.40
2022-11-13T09:53:19.098Z,8.17
2022-11-13T09:56:51.257Z,7.40
2022-11-13T10:00:05.848Z,6.30
2022-11-13T10:04:00.658Z,8.37
2022-11-13T10:07:25.024Z,9.10
2022-11-13T10:10:57.479Z,8.63
2022-11-13T10:14:02.045Z,7.30
2022-11-13T10:18:00.716Z,6.00
2022-11-13T10:21:14.172Z,5.73
2022-11-13T10:24:27.397Z,5.63
2022-11-13T10:27:15.886Z,5.60
2022-11-13T10:30:03.315Z,6.53
2022-11-13T10:32:50.634Z,8.80
2022-11-13T10:35:42.023Z,9.07
2022-11-13T10:39:06.395Z,13.50
2022-11-13T10:41:56.575Z,8.47
2022-11-13T10:45:01.087Z,5.33
2022-11-13T10:48:07.942Z,4.63
2022-11-13T10:51:04.550Z,6.50
2022-11-13T10:53:52.370Z,4.03
2022-11-13T10:56:38.471Z,4.33
2022-11-13T10:59:26.365Z,4.47
2022-11-13T11:02:22.827Z,3.90
2022-11-13T11:05:29.540Z,4.67
2022-11-13T11:08:16.149Z,4.30
2022-11-13T11:11:37.431Z,4.03
2022-11-13T11:14:42.697Z,3.63
2022-11-13T11:18:00.647Z,4.07
2022-11-13T11:21:01.501Z,4.37
2022-11-13T11:24:22.285Z,10.00
2022-11-13T11:27:29.065Z,4.40
2022-11-13T11:30:26.605Z,4.07
2022-11-13T11:33:51.286Z,4.70
2022-11-13T11:37:13.784Z,6.23
2022-11-13T11:40:36.291Z,3.77
2022-11-13T11:44:15.164Z,3.50
2022-11-13T11:47:01.469Z,7.17
2022-11-13T11:49:47.875Z,3.93
2022-11-13T11:53:17.374Z,4.37
2022-11-13T11:56:30.275Z,3.30
2022-11-13T12:00:00.193Z,4.33
2022-11-13T12:03:38.735Z,4.03
2022-11-13T12:07:00.219Z,2.60
2022-11-13T12:10:38.096Z,2.20
2022-11-13T12:14:01.498Z,2.90
2022-11-13T12:17:29.373Z,2.70
2022-11-13T12:21:02.642Z,2.43
2022-11-13T12:24:52.204Z,2.00
2022-11-13T12:28:24.938Z,2.07
2022-11-13T12:31:53.699Z,2.53
2022-11-13T12:34:55.582Z,2.30
2022-11-13T12:38:24.683Z,2.30
2022-11-13T12:41:43.207Z,2.10
2022-11-13T12:44:38.342Z,2.57
2022-11-13T12:47:25.158Z,2.80
2022-11-13T12:50:33.053Z,3.20
2022-11-13T12:53:43.067Z,2.90
2022-11-13T12:56:33.026Z,3.13
2022-11-13T12:59:34.315Z,2.90
2022-11-13T13:02:43.943Z,3.27
2022-11-13T13:06:26.012Z,3.10
2022-11-13T13:09:51.742Z,3.63
2022-11-13T13:13:24.267Z,2.27
2022-11-13T13:16:12.141Z,3.00
2022-11-13T13:19:31.875Z,3.03
2022-11-13T13:22:36.432Z,3.03
2022-11-13T13:25:36.889Z,2.53
2022-11-13T13:28:25.875Z,2.47
2022-11-13T13:32:20.803Z,2.53
2022-11-13T13:35:18.840Z,3.20
2022-11-13T13:38:52.447Z,2.33
2022-11-13T13:42:42.975Z,2.27
2022-11-13T13:46:22.050Z,2.50
2022-11-13T13:49:23.871Z,2.50
2022-11-13T13:52:17.552Z,2.77
2022-11-13T13:55:08.154Z,2.70
2022-11-13T13:57:55.109Z,2.83
2022-11-13T14:01:05.127Z,5.23
2022-11-13T14:03:47.749Z,3.60
2022-11-13T14:06:34.940Z,4.17
2022-11-13T14:09:29.554Z,3.40
2022-11-13T14:12:23.444Z,4.80
2022-11-13T14:15:35.288Z,7.77
2022-11-13T14:18:21.392Z,4.27
2022-11-13T14:21:26.129Z,7.57
2022-11-13T14:24:50.473Z,5.17
2022-11-13T14:27:38.676Z,4.80
2022-11-13T14:30:31.435Z,5.40
2022-11-13T14:33:34.323Z,3.97
2022-11-13T14:36:33.106Z,4.23
2022-11-13T14:39:32.240Z,3.43
2022-11-13T14:42:43.996Z,3.50
2022-11-13T14:45:33.995Z,3.70
2022-11-13T14:48:33.413Z,3.50
2022-11-13T14:51:33.946Z,3.40
2022-11-13T14:55:13.083Z,4.40
2022-11-13T14:57:50.881Z,3.40
2022-11-13T15:00:39.151Z,4.10
2022-11-13T15:03:27.773Z,4.07
2022-11-13T15:06:27.064Z,4.10
2022-11-13T15:09:18.454Z,4.13
2022-11-13T15:12:04.809Z,4.03
2022-11-13T15:14:51.624Z,3.70
2022-11-13T15:17:37.909Z,4.60
2022-11-13T15:20:31.666Z,4.67
2022-11-13T15:23:26.684Z,4.47
2022-11-13T15:26:14.096Z,4.93
2022-11-13T15:29:00.469Z,5.20
2022-11-13T15:31:48.289Z,5.70
2022-11-13T15:34:34.766Z,5.10
2022-11-13T15:37:20.472Z,5.40
2022-11-13T15:40:08.177Z,5.00
2022-11-13T15:42:55.433Z,4.53
2022-11-13T15:45:44.360Z,5.03
2022-11-13T15:48:30.599Z,5.40
2022-11-13T15:51:46.594Z,6.90
2022-11-13T15:54:38.834Z,5.60
2022-11-13T15:57:31.002Z,5.83
2022-11-13T16:00:26.963Z,6.03
2022-11-13T16:03:13.141Z,14.30
2022-11-13T16:06:00.587Z,13.50
2022-11-13T16:08:48.277Z,18.63
2022-11-13T16:11:35.701Z,12.93
2022-11-13T16:14:25.072Z,13.83
2022-11-13T16:17:20.942Z,18.33
2022-11-13T16:20:15.520Z,16.97
2022-11-13T16:23:01.583Z,13.90
2022-11-13T16:25:49.816Z,12.00
2022-11-13T16:28:52.873Z,9.33
2022-11-13T16:31:43.099Z,9.90
2022-11-13T16:34:29.297Z,8.77
2022-11-13T16:37:24.308Z,7.20
2022-11-13T16:40:26.652Z,6.73
2022-11-13T16:43:13.476Z,7.20
2022-11-13T16:46:19.066Z,7.03
2022-11-13T16:49:05.086Z,10.50
2022-11-13T16:51:52.148Z,16.70
2022-11-13T16:54:38.862Z,17.63
2022-11-13T16:57:27.407Z,13.20
2022-11-13T17:00:19.445Z,9.60
2022-11-13T17:03:05.968Z,9.93
2022-11-13T17:05:53.207Z,11.87
2022-11-13T17:08:39.366Z,10.20
2022-11-13T17:11:30.634Z,13.43
2022-11-13T17:14:16.444Z,10.57
2022-11-13T17:17:06.686Z,10.57
2022-11-13T17:19:53.070Z,10.40
2022-11-13T17:22:38.914Z,9.90
2022-11-13T17:25:28.067Z,9.20
2022-11-13T17:28:14.363Z,8.33
2022-11-13T17:31:10.394Z,8.80
2022-11-13T17:33:56.380Z,9.27
2022-11-13T17:36:42.553Z,9.73
2022-11-13T17:39:28.784Z,10.50
2022-11-13T17:42:14.671Z,9.90
2022-11-13T17:45:01.048Z,9.20
2022-11-13T17:47:47.169Z,10.90
2022-11-13T17:50:34.039Z,10.60
2022-11-13T17:53:20.946Z,10.30
2022-11-13T17:56:11.963Z,11.40
2022-11-13T17:58:58.133Z,10.10
2022-11-13T18:01:44.772Z,10.07
2022-11-13T18:04:32.043Z,11.00
2022-11-13T18:07:18.436Z,9.53
2022-11-13T18:10:05.917Z,9.80
2022-11-13T18:12:52.220Z,9.93
2022-11-13T18:15:40.887Z,8.90
2022-11-13T18:18:26.797Z,9.30
2022-11-13T18:21:23.880Z,9.50
2022-11-13T18:24:19.845Z,8.13
2022-11-13T18:27:06.215Z,9.20
2022-11-13T18:29:52.996Z,8.80
2022-11-13T18:32:39.152Z,8.83
2022-11-13T18:35:25.509Z,8.23
2022-11-13T18:38:11.527Z,8.23
2022-11-13T18:41:19.164Z,7.40
2022-11-13T18:44:05.548Z,7.27
2022-11-13T18:46:51.847Z,7.47
2022-11-13T18:49:37.733Z,7.30
2022-11-13T18:52:24.027Z,6.70
2022-11-13T18:55:10.577Z,8.03
2022-11-13T18:57:56.998Z,7.80
2022-11-13T19:00:43.423Z,8.50
2022-11-13T19:03:30.125Z,9.70
2022-11-13T19:06:21.866Z,9.20
2022-11-13T19:09:16.671Z,13.93
2022-11-13T19:12:02.941Z,10.73
2022-11-13T19:14:49.344Z,9.00
2022-11-13T19:17:35.550Z,13.90
2022-11-13T19:20:21.966Z,9.30
2022-11-13T19:23:09.338Z,10.40
2022-11-13T19:25:55.890Z,6.63
2022-11-13T19:28:46.074Z,7.33
2022-11-13T19:31:32.646Z,7.00
2022-11-13T19:34:18.731Z,6.50
2022-11-13T19:37:05.241Z,7.40
2022-11-13T19:39:51.422Z,5.73
2022-11-13T19:42:40.889Z,6.57
2022-11-13T19:45:29.762Z,6.43
2022-11-13T19:48:29.010Z,7.00
2022-11-13T19:51:21.689Z,6.50
2022-11-13T19:54:09.032Z,5.77
2022-11-13T19:56:55.040Z,6.80
2022-11-13T19:59:41.179Z,5.90
2022-11-13T20:02:27.814Z,7.43
2022-11-13T20:05:13.609Z,6.20
2022-11-13T20:08:00.046Z,8.70
2022-11-13T20:10:46.005Z,16.77
2022-11-13T20:13:36.665Z,9.37
2022-11-13T20:16:24.093Z,6.00
2022-11-13T20:19:10.296Z,6.40
2022-11-13T20:21:56.791Z,10.40
2022-11-13T20:24:43.434Z,11.53
2022-11-13T20:27:29.571Z,10.37
2022-11-13T20:30:15.945Z,8.80
2022-11-13T20:33:01.941Z,7.90
2022-11-13T20:35:54.997Z,6.73
2022-11-13T20:38:47.309Z,6.70
2022-11-13T20:41:33.419Z,5.93
2022-11-13T20:44:19.497Z,6.27
2022-11-13T20:47:05.841Z,7.40
2022-11-13T20:49:52.585Z,7.40
2022-11-13T20:52:38.951Z,7.47
2022-11-13T20:55:25.047Z,6.20
2022-11-13T20:58:11.294Z,6.63
2022-11-13T21:01:15.672Z,7.60
2022-11-13T21:04:01.660Z,9.23
2022-11-13T21:06:48.402Z,8.73
2022-11-13T21:09:34.948Z,8.10
2022-11-13T21:12:20.971Z,7.80
2022-11-13T21:15:08.371Z,10.90
2022-11-13T21:17:54.567Z,7.60
2022-11-13T21:20:41.040Z,9.13
2022-11-13T21:23:30.324Z,9.73
2022-11-13T21:26:17.291Z,8.57
2022-11-13T21:29:03.844Z,11.17
2022-11-13T21:31:49.806Z,10.07
2022-11-13T21:34:35.915Z,10.43
2022-11-13T21:37:22.064Z,8.60
2022-11-13T21:40:11.982Z,15.23
2022-11-13T21:42:58.017Z,8.90
2022-11-13T21:45:44.315Z,12.70
2022-11-13T21:48:33.198Z,11.07
2022-11-13T21:51:19.640Z,13.67
2022-11-13T21:54:07.544Z,8.30
2022-11-13T21:56:54.476Z,9.13
2022-11-13T21:59:40.406Z,7.80
2022-11-13T22:02:26.806Z,8.87
2022-11-13T22:05:13.927Z,9.37
2022-11-13T22:08:00.125Z,9.53
2022-11-13T22:10:47.131Z,9.40
2022-11-13T22:13:33.784Z,8.70
2022-11-13T22:16:21.414Z,8.30
2022-11-13T22:19:25.303Z,7.80
2022-11-13T22:22:13.540Z,7.30
2022-11-13T22:24:59.456Z,7.67
2022-11-13T22:27:45.388Z,8.50
2022-11-13T22:30:34.055Z,7.80
2022-11-13T22:33:20.625Z,8.50
2022-11-13T22:36:34.166Z,8.10
2022-11-13T22:39:20.669Z,7.93
2022-11-13T22:42:06.667Z,8.07
2022-11-13T22:44:56.389Z,8.53
2022-11-13T22:47:43.359Z,9.87
2022-11-13T22:50:29.967Z,8.47
2022-11-13T22:53:15.545Z,8.63
2022-11-13T22:56:15.182Z,8.83
2022-11-13T22:59:06.336Z,8.93
2022-11-13T23:01:52.539Z,10.00
2022-11-13T23:04:38.550Z,9.53
2022-11-13T23:07:25.012Z,10.20
2022-11-13T23:10:11.314Z,10.07
2022-11-13T23:12:57.811Z,9.40
2022-11-13T23:15:44.135Z,9.10
2022-11-13T23:18:32.868Z,8.73
2022-11-13T23:21:20.510Z,9.53
2022-11-13T23:24:09.856Z,9.70
2022-11-13T23:26:56.640Z,10.63
2022-11-13T23:29:47.228Z,10.77
2022-11-13T23:32:43.373Z,9.07
2022-11-13T23:35:30.219Z,10.70
2022-11-13T23:38:16.283Z,10.63
2022-11-13T23:41:03.580Z,10.20
2022-11-13T23:46:55.997Z,11.23
2022-11-13T23:49:42.373Z,12.60
2022-11-13T23:52:28.833Z,12.50
2022-11-13T23:55:17.414Z,11.47
2022-11-13T23:58:11.020Z,11.30
